createdAt,value
2022-08-24T00:00:31.368Z,30.30
2022-08-24T00:03:00.743Z,30.40
2022-08-24T00:05:28.681Z,30.30
2022-08-24T00:07:56.938Z,30.20
2022-08-24T00:10:25.102Z,30.20
2022-08-24T00:12:52.882Z,29.90
2022-08-24T00:15:21.104Z,30.00
2022-08-24T00:17:48.958Z,29.80
2022-08-24T00:20:18.492Z,30.00
2022-08-24T00:22:46.321Z,30.00
2022-08-24T00:25:14.555Z,30.00
2022-08-24T00:27:42.763Z,30.00
2022-08-24T00:30:13.706Z,30.00
2022-08-24T00:32:42.877Z,29.90
2022-08-24T00:35:12.042Z,30.00
2022-08-24T00:37:41.383Z,30.00
2022-08-24T00:40:12.117Z,29.90
2022-08-24T00:42:40.188Z,29.90
2022-08-24T00:45:10.115Z,29.90
2022-08-24T00:47:47.675Z,29.90
2022-08-24T00:50:19.345Z,29.90
2022-08-24T00:52:51.136Z,29.80
2022-08-24T00:55:20.225Z,29.90
2022-08-24T00:57:49.545Z,30.00
2022-08-24T01:00:19.420Z,29.90
2022-08-24T01:02:50.802Z,29.80
2022-08-24T01:05:19.455Z,29.90
2022-08-24T01:07:50.760Z,29.80
2022-08-24T01:10:20.165Z,29.90
2022-08-24T01:13:00.744Z,29.70
2022-08-24T01:15:29.258Z,29.50
2022-08-24T01:18:14.706Z,29.20
2022-08-24T01:20:43.800Z,29.40
2022-08-24T01:23:17.195Z,29.40
2022-08-24T01:25:46.585Z,29.30
2022-08-24T01:28:16.768Z,29.20
2022-08-24T01:30:49.735Z,29.10
2022-08-24T01:33:25.616Z,29.00
2022-08-24T01:35:56.226Z,28.90
2022-08-24T01:38:24.121Z,28.90
2022-08-24T01:40:57.738Z,29.10
2022-08-24T01:43:25.926Z,29.10
2022-08-24T01:45:54.099Z,29.20
2022-08-24T01:48:23.095Z,29.20
2022-08-24T01:50:52.612Z,29.10
2022-08-24T01:53:20.947Z,29.20
2022-08-24T01:55:48.906Z,29.10
2022-08-24T01:58:18.251Z,29.10
2022-08-24T02:00:46.144Z,29.00
2022-08-24T02:03:13.890Z,29.10
2022-08-24T02:05:41.714Z,29.30
2022-08-24T02:08:09.584Z,29.40
2022-08-24T02:10:37.627Z,29.50
2022-08-24T02:13:05.941Z,29.40
2022-08-24T02:15:39.908Z,29.40
2022-08-24T02:18:08.340Z,29.20
2022-08-24T02:20:43.401Z,29.10
2022-08-24T02:23:11.334Z,29.20
2022-08-24T02:25:39.401Z,29.40
2022-08-24T02:28:07.245Z,29.10
2022-08-24T02:30:36.559Z,29.10
2022-08-24T02:33:04.892Z,28.90
2022-08-24T02:35:33.135Z,28.90
2022-08-24T02:38:01.115Z,29.00
2022-08-24T02:40:29.373Z,29.00
2022-08-24T02:42:57.414Z,29.10
2022-08-24T02:45:25.354Z,29.10
2022-08-24T02:47:54.571Z,29.20
2022-08-24T02:50:22.880Z,29.10
2022-08-24T02:52:50.769Z,29.00
2022-08-24T02:55:20.197Z,29.00
2022-08-24T02:57:48.823Z,28.80
2022-08-24T03:00:17.804Z,28.60
2022-08-24T03:02:45.626Z,28.50
2022-08-24T03:05:15.342Z,28.50
2022-08-24T03:07:43.456Z,28.30
2022-08-24T03:10:11.384Z,28.10
2022-08-24T03:12:39.605Z,28.00
2022-08-24T03:15:09.856Z,27.80
2022-08-24T03:17:37.802Z,27.80
2022-08-24T03:20:09.860Z,27.80
2022-08-24T03:22:39.224Z,27.90
2022-08-24T03:25:07.617Z,27.90
2022-08-24T03:27:35.653Z,27.70
2022-08-24T03:30:04.016Z,27.70
2022-08-24T03:32:32.185Z,27.60
2022-08-24T03:34:59.904Z,27.70
2022-08-24T03:37:27.800Z,27.80
2022-08-24T03:39:57.302Z,27.90
2022-08-24T03:42:25.263Z,27.80
2022-08-24T03:44:53.229Z,27.90
2022-08-24T03:47:22.848Z,27.80
2022-08-24T03:49:50.711Z,27.80
2022-08-24T03:52:18.744Z,27.90
2022-08-24T03:54:49.098Z,27.90
2022-08-24T03:57:18.417Z,27.70
2022-08-24T03:59:46.721Z,27.80
2022-08-24T04:02:15.576Z,27.60
2022-08-24T04:04:43.564Z,27.30
2022-08-24T04:07:12.347Z,27.30
2022-08-24T04:09:40.235Z,27.20
2022-08-24T04:12:08.463Z,27.20
2022-08-24T04:14:38.621Z,27.20
2022-08-24T04:17:06.601Z,27.20
2022-08-24T04:19:35.109Z,27.10
2022-08-24T04:22:03.115Z,26.90
2022-08-24T04:24:32.032Z,26.70
2022-08-24T04:27:00.001Z,26.90
2022-08-24T04:29:27.888Z,27.10
2022-08-24T04:31:58.429Z,27.10
2022-08-24T04:34:26.309Z,27.10
2022-08-24T04:36:54.312Z,27.00
2022-08-24T04:39:22.290Z,27.00
2022-08-24T04:41:51.599Z,27.20
2022-08-24T04:44:20.172Z,27.30
2022-08-24T04:46:48.168Z,27.30
2022-08-24T04:49:17.452Z,27.20
2022-08-24T04:51:45.350Z,27.20
2022-08-24T04:54:13.067Z,27.30
2022-08-24T04:56:40.765Z,27.30
2022-08-24T04:59:09.233Z,27.40
2022-08-24T05:01:37.189Z,27.30
2022-08-24T05:04:05.436Z,27.20
2022-08-24T05:06:34.803Z,27.30
2022-08-24T05:09:03.084Z,27.20
2022-08-24T05:11:31.216Z,27.10
2022-08-24T05:13:59.222Z,27.10
2022-08-24T05:16:27.895Z,27.30
2022-08-24T05:18:56.296Z,27.20
2022-08-24T05:21:25.040Z,27.10
2022-08-24T05:23:54.320Z,27.00
2022-08-24T05:26:25.986Z,27.00
2022-08-24T05:28:55.100Z,27.00
2022-08-24T05:31:24.226Z,27.10
2022-08-24T05:33:52.254Z,27.00
2022-08-24T05:36:21.657Z,27.00
2022-08-24T05:38:49.952Z,27.00
2022-08-24T05:41:19.395Z,27.10
2022-08-24T05:43:47.357Z,27.00
2022-08-24T05:46:15.642Z,27.00
2022-08-24T05:48:43.464Z,26.90
2022-08-24T05:51:20.559Z,27.00
2022-08-24T05:53:48.270Z,26.80
2022-08-24T05:56:17.064Z,27.10
2022-08-24T05:58:46.132Z,27.00
2022-08-24T06:01:15.386Z,27.00
2022-08-24T06:03:43.151Z,27.10
2022-08-24T06:06:12.197Z,27.20
2022-08-24T06:08:41.846Z,27.10
2022-08-24T06:11:09.904Z,26.90
2022-08-24T06:13:37.764Z,26.90
2022-08-24T06:16:20.792Z,27.00
2022-08-24T06:18:49.615Z,26.70
2022-08-24T06:21:22.831Z,26.70
2022-08-24T06:23:51.082Z,26.20
2022-08-24T06:26:36.407Z,26.10
2022-08-24T06:29:04.437Z,26.20
2022-08-24T06:31:39.947Z,26.20
2022-08-24T06:34:08.169Z,26.30
2022-08-24T06:36:36.187Z,26.20
2022-08-24T06:39:04.042Z,26.10
2022-08-24T06:41:33.789Z,26.70
2022-08-24T06:44:01.500Z,26.70
2022-08-24T06:46:32.599Z,26.80
2022-08-24T06:49:02.204Z,26.70
2022-08-24T06:51:30.315Z,26.40
2022-08-24T06:53:58.705Z,26.20
2022-08-24T06:56:26.763Z,26.10
2022-08-24T06:58:54.775Z,26.50
2022-08-24T07:01:23.769Z,26.90
2022-08-24T07:03:51.731Z,27.30
2022-08-24T07:06:20.988Z,27.40
2022-08-24T07:08:48.765Z,27.30
2022-08-24T07:11:17.665Z,27.30
2022-08-24T07:13:46.637Z,26.80
2022-08-24T07:16:14.734Z,26.70
2022-08-24T07:18:45.021Z,26.50
2022-08-24T07:21:19.274Z,26.50
2022-08-24T07:23:48.472Z,26.60
2022-08-24T07:26:20.943Z,27.00
2022-08-24T07:28:50.243Z,27.00
2022-08-24T07:31:18.204Z,26.80
2022-08-24T07:33:46.175Z,26.70
2022-08-24T07:36:21.933Z,27.00
2022-08-24T07:38:53.263Z,27.20
2022-08-24T07:41:47.142Z,27.80
2022-08-24T07:44:09.587Z,27.40
2022-08-24T07:46:37.806Z,27.10
2022-08-24T07:49:11.881Z,27.00
2022-08-24T07:51:46.704Z,27.10
2022-08-24T07:54:16.387Z,27.80
2022-08-24T07:56:44.129Z,27.70
2022-08-24T07:59:13.432Z,27.60
2022-08-24T08:01:42.361Z,28.00
2022-08-24T08:04:10.455Z,27.70
2022-08-24T08:06:38.369Z,27.70
2022-08-24T08:09:06.351Z,27.70
2022-08-24T08:11:35.617Z,28.20
2022-08-24T08:14:03.643Z,28.00
2022-08-24T08:16:31.747Z,28.30
2022-08-24T08:19:15.043Z,28.80
2022-08-24T08:22:01.283Z,29.20
2022-08-24T08:24:29.168Z,29.20
2022-08-24T08:26:59.449Z,29.30
2022-08-24T08:29:27.424Z,29.30
2022-08-24T08:31:55.983Z,29.80
2022-08-24T08:34:23.932Z,29.90
2022-08-24T08:36:52.184Z,30.20
2022-08-24T08:39:21.509Z,30.50
2022-08-24T08:42:15.152Z,30.70
2022-08-24T08:44:54.645Z,31.10
2022-08-24T08:47:34.721Z,31.30
2022-08-24T08:50:12.394Z,31.50
2022-08-24T08:53:12.430Z,31.70
2022-08-24T08:55:43.595Z,31.90
2022-08-24T08:58:24.552Z,32.10
2022-08-24T09:01:01.088Z,32.30
2022-08-24T09:03:40.619Z,32.50
2022-08-24T09:06:43.590Z,32.60
2022-08-24T09:09:35.380Z,32.60
2022-08-24T09:12:09.895Z,32.70
2022-08-24T09:15:24.664Z,32.80
2022-08-24T09:18:05.746Z,32.90
2022-08-24T09:20:46.924Z,33.00
2022-08-24T09:23:18.173Z,33.10
2022-08-24T09:25:53.019Z,33.20
2022-08-24T09:28:40.624Z,33.40
2022-08-24T09:31:56.500Z,33.50
2022-08-24T09:34:40.570Z,33.70
2022-08-24T09:37:25.640Z,33.90
2022-08-24T09:40:02.247Z,34.00
2022-08-24T09:43:11.942Z,34.10
2022-08-24T09:46:16.748Z,34.20
2022-08-24T09:49:12.370Z,34.30
2022-08-24T09:52:02.263Z,34.50
2022-08-24T09:54:52.568Z,34.50
2022-08-24T09:57:50.456Z,34.60
2022-08-24T10:00:19.925Z,34.70
2022-08-24T10:03:01.265Z,34.80
2022-08-24T10:05:36.877Z,34.90
2022-08-24T10:08:11.403Z,35.00
2022-08-24T10:10:47.584Z,35.20
2022-08-24T10:13:21.937Z,35.30
2022-08-24T10:15:56.854Z,35.30
2022-08-24T10:18:35.454Z,35.30
2022-08-24T10:21:26.298Z,35.40
2022-08-24T10:24:14.386Z,35.50
2022-08-24T10:26:53.395Z,35.60
2022-08-24T10:29:29.537Z,35.70
2022-08-24T10:32:10.870Z,35.70
2022-08-24T10:34:47.076Z,35.80
2022-08-24T10:37:24.586Z,35.90
2022-08-24T10:40:09.443Z,36.00
2022-08-24T10:43:28.904Z,36.10
2022-08-24T10:46:38.803Z,36.20
2022-08-24T10:49:23.277Z,36.30
2022-08-24T10:52:02.216Z,36.40
2022-08-24T10:54:43.602Z,36.50
2022-08-24T10:57:22.135Z,36.80
2022-08-24T10:59:53.170Z,36.80
2022-08-24T11:02:31.049Z,36.80
2022-08-24T11:05:03.712Z,36.80
2022-08-24T11:07:34.240Z,36.90
2022-08-24T11:10:08.966Z,36.90
2022-08-24T11:12:39.870Z,37.00
2022-08-24T11:15:12.827Z,37.10
2022-08-24T11:17:57.865Z,37.20
2022-08-24T11:20:32.646Z,37.40
2022-08-24T11:23:09.014Z,37.40
2022-08-24T11:25:40.484Z,37.50
2022-08-24T11:28:18.765Z,37.60
2022-08-24T11:30:46.941Z,37.60
2022-08-24T11:33:27.439Z,37.60
2022-08-24T11:35:55.571Z,37.80
2022-08-24T11:38:29.316Z,37.90
2022-08-24T11:41:04.989Z,37.90
2022-08-24T11:43:42.460Z,37.90
2022-08-24T11:46:17.274Z,37.90
2022-08-24T11:49:05.287Z,38.00
2022-08-24T11:51:39.611Z,38.00
2022-08-24T11:54:12.260Z,38.20
2022-08-24T11:56:44.850Z,38.20
2022-08-24T11:59:16.645Z,38.30
2022-08-24T12:01:48.172Z,38.30
2022-08-24T12:04:27.232Z,38.40
2022-08-24T12:06:58.191Z,38.40
2022-08-24T12:09:33.851Z,38.50
2022-08-24T12:12:07.284Z,38.60
2022-08-24T12:14:38.153Z,38.60
2022-08-24T12:17:08.547Z,38.60
2022-08-24T12:19:38.076Z,38.70
2022-08-24T12:22:07.696Z,38.70
2022-08-24T12:24:37.011Z,38.70
2022-08-24T12:27:11.438Z,38.70
2022-08-24T12:29:42.289Z,38.70
2022-08-24T12:32:11.940Z,38.80
2022-08-24T12:34:49.744Z,38.90
2022-08-24T12:37:21.205Z,38.90
2022-08-24T12:39:51.460Z,39.00
2022-08-24T12:42:23.522Z,39.00
2022-08-24T12:44:54.210Z,39.10
2022-08-24T12:47:25.848Z,39.10
2022-08-24T12:49:55.690Z,39.10
2022-08-24T12:52:56.259Z,39.20
2022-08-24T12:55:31.409Z,39.20
2022-08-24T13:00:56.334Z,39.20
2022-08-24T13:03:27.017Z,39.30
2022-08-24T13:05:58.031Z,39.30
2022-08-24T13:08:35.697Z,39.30
2022-08-24T13:11:07.626Z,39.30
2022-08-24T13:13:48.528Z,39.40
2022-08-24T13:16:47.543Z,39.40
2022-08-24T13:19:17.796Z,39.40
2022-08-24T13:21:52.050Z,39.40
2022-08-24T13:25:01.117Z,39.40
2022-08-24T13:28:05.017Z,39.40
2022-08-24T13:31:19.636Z,39.40
2022-08-24T13:33:48.858Z,39.50
2022-08-24T13:36:51.830Z,39.50
2022-08-24T13:39:42.215Z,39.60
2022-08-24T13:42:28.120Z,39.60
2022-08-24T13:45:10.187Z,39.50
2022-08-24T13:47:50.538Z,39.60
2022-08-24T13:50:30.847Z,39.60
2022-08-24T13:53:54.088Z,39.70
2022-08-24T13:56:38.823Z,39.70
2022-08-24T13:59:14.769Z,39.60
2022-08-24T14:02:03.700Z,39.60
2022-08-24T14:04:38.514Z,39.70
2022-08-24T14:07:11.008Z,39.60
2022-08-24T14:09:44.753Z,39.70
2022-08-24T14:12:20.238Z,39.70
2022-08-24T14:15:01.570Z,39.70
2022-08-24T14:17:55.076Z,39.70
2022-08-24T14:20:58.497Z,39.80
2022-08-24T14:23:40.054Z,39.70
2022-08-24T14:26:53.694Z,39.70
2022-08-24T14:29:40.549Z,39.70
2022-08-24T14:32:41.983Z,39.60
2022-08-24T14:35:36.235Z,39.60
2022-08-24T14:38:34.397Z,39.60
2022-08-24T14:41:19.875Z,39.60
2022-08-24T14:44:16.592Z,39.60
2022-08-24T14:46:52.292Z,39.50
2022-08-24T14:49:28.892Z,39.50
2022-08-24T14:52:02.344Z,39.50
2022-08-24T14:54:39.658Z,39.50
2022-08-24T14:57:20.801Z,39.40
2022-08-24T14:59:55.383Z,39.40
2022-08-24T15:02:59.014Z,39.20
2022-08-24T15:05:31.805Z,39.20
2022-08-24T15:08:01.232Z,39.10
2022-08-24T15:10:36.982Z,39.00
2022-08-24T15:13:07.331Z,39.00
2022-08-24T15:15:36.570Z,38.90
2022-08-24T15:18:09.413Z,38.80
2022-08-24T15:20:46.486Z,38.80
2022-08-24T15:23:18.027Z,38.70
2022-08-24T15:25:50.216Z,38.70
2022-08-24T15:28:24.244Z,38.60
2022-08-24T15:30:55.472Z,38.60
2022-08-24T15:33:24.319Z,38.60
2022-08-24T15:36:06.718Z,38.50
2022-08-24T15:38:35.780Z,38.50
2022-08-24T15:41:09.457Z,38.50
2022-08-24T15:43:44.458Z,38.50
2022-08-24T15:46:19.456Z,38.50
2022-08-24T15:48:57.956Z,38.50
2022-08-24T15:51:37.854Z,38.40
2022-08-24T15:54:22.784Z,38.40
2022-08-24T15:56:55.436Z,38.40
2022-08-24T15:59:28.213Z,38.40
2022-08-24T16:02:38.901Z,38.30
2022-08-24T16:05:34.982Z,38.30
2022-08-24T16:08:24.238Z,38.20
2022-08-24T16:11:09.446Z,38.20
2022-08-24T16:14:03.841Z,38.10
2022-08-24T16:16:46.054Z,38.10
2022-08-24T16:19:24.552Z,38.10
2022-08-24T16:22:18.511Z,38.00
2022-08-24T16:24:51.031Z,38.00
2022-08-24T16:27:25.687Z,37.90
2022-08-24T16:30:03.896Z,37.90
2022-08-24T16:32:51.964Z,37.90
2022-08-24T16:35:22.394Z,37.80
2022-08-24T16:37:52.950Z,37.90
2022-08-24T16:40:34.680Z,37.80
2022-08-24T16:43:07.032Z,37.70
2022-08-24T16:45:43.543Z,37.60
2022-08-24T16:48:17.273Z,37.60
2022-08-24T16:50:51.083Z,37.60
2022-08-24T16:53:21.950Z,37.50
2022-08-24T16:55:49.974Z,37.50
2022-08-24T16:58:18.283Z,37.40
2022-08-24T17:00:48.034Z,37.40
2022-08-24T17:03:16.097Z,37.30
2022-08-24T17:05:44.631Z,37.30
2022-08-24T17:08:12.870Z,37.30
2022-08-24T17:10:41.002Z,37.20
2022-08-24T17:13:08.973Z,37.10
2022-08-24T17:15:37.419Z,37.10
2022-08-24T17:18:08.802Z,37.10
2022-08-24T17:20:36.883Z,37.10
2022-08-24T17:23:04.951Z,37.00
2022-08-24T17:25:33.039Z,36.90
2022-08-24T17:28:01.678Z,36.90
2022-08-24T17:30:30.967Z,36.80
2022-08-24T17:33:00.371Z,36.80
2022-08-24T17:35:29.823Z,36.70
2022-08-24T17:37:57.948Z,36.70
2022-08-24T17:40:26.647Z,36.70
2022-08-24T17:42:54.760Z,36.60
2022-08-24T17:45:23.473Z,36.50
2022-08-24T17:47:52.522Z,36.50
2022-08-24T17:50:20.908Z,36.50
2022-08-24T17:52:50.445Z,36.40
2022-08-24T17:55:27.589Z,36.40
2022-08-24T17:57:55.695Z,36.30
2022-08-24T18:00:23.801Z,36.20
2022-08-24T18:02:51.955Z,36.20
2022-08-24T18:05:20.107Z,36.10
2022-08-24T18:07:54.655Z,36.10
2022-08-24T18:10:32.198Z,36.00
2022-08-24T18:13:00.496Z,36.00
2022-08-24T18:15:34.899Z,35.90
2022-08-24T18:18:05.556Z,35.90
2022-08-24T18:20:38.119Z,35.80
2022-08-24T18:23:11.486Z,35.80
2022-08-24T18:25:42.100Z,35.70
2022-08-24T18:28:10.216Z,35.70
2022-08-24T18:30:40.723Z,35.50
2022-08-24T18:33:08.959Z,35.00
2022-08-24T18:35:37.151Z,34.60
2022-08-24T18:38:05.304Z,34.10
2022-08-24T18:40:34.780Z,33.60
2022-08-24T18:43:04.378Z,33.20
2022-08-24T18:45:33.027Z,32.90
2022-08-24T18:48:01.069Z,32.70
2022-08-24T18:50:29.174Z,32.70
2022-08-24T18:52:57.120Z,32.70
2022-08-24T18:55:25.257Z,32.60
2022-08-24T18:57:54.745Z,32.30
2022-08-24T19:00:22.917Z,32.20
2022-08-24T19:02:50.808Z,32.20
2022-08-24T19:05:20.517Z,32.20
2022-08-24T19:07:49.572Z,32.00
2022-08-24T19:10:18.643Z,31.80
2022-08-24T19:12:48.007Z,31.80
2022-08-24T19:15:38.831Z,31.80
2022-08-24T19:18:06.724Z,31.90
2022-08-24T19:20:35.216Z,32.00
2022-08-24T19:23:07.409Z,31.90
2022-08-24T19:25:36.020Z,32.00
2022-08-24T19:28:04.498Z,31.80
2022-08-24T19:30:33.868Z,31.80
2022-08-24T19:33:01.943Z,31.80
2022-08-24T19:35:30.270Z,31.80
2022-08-24T19:37:58.535Z,31.80
2022-08-24T19:40:26.632Z,31.70
2022-08-24T19:42:55.479Z,31.70
2022-08-24T19:45:41.971Z,31.70
2022-08-24T19:48:11.348Z,31.70
2022-08-24T19:50:39.057Z,31.70
2022-08-24T19:53:07.008Z,31.50
2022-08-24T19:55:34.822Z,31.50
2022-08-24T19:58:06.935Z,31.40
2022-08-24T20:00:38.568Z,31.40
2022-08-24T20:03:06.309Z,31.40
2022-08-24T20:05:37.774Z,31.40
2022-08-24T20:08:05.574Z,31.30
2022-08-24T20:10:33.742Z,31.30
2022-08-24T20:13:01.870Z,31.20
2022-08-24T20:15:29.884Z,31.20
2022-08-24T20:17:57.834Z,31.20
2022-08-24T20:20:26.086Z,31.10
2022-08-24T20:22:55.439Z,31.10
2022-08-24T20:25:23.350Z,31.00
2022-08-24T20:28:02.146Z,30.90
2022-08-24T20:30:39.332Z,30.90
2022-08-24T20:33:08.638Z,30.90
2022-08-24T20:35:37.115Z,30.80
2022-08-24T20:38:07.089Z,30.80
2022-08-24T20:40:35.852Z,30.90
2022-08-24T20:43:03.665Z,30.90
2022-08-24T20:45:31.607Z,30.90
2022-08-24T20:48:00.673Z,30.90
2022-08-24T20:50:29.623Z,30.80
2022-08-24T20:52:57.573Z,30.80
2022-08-24T20:55:27.008Z,30.70
2022-08-24T20:58:00.078Z,30.60
2022-08-24T21:00:28.535Z,30.60
2022-08-24T21:02:57.745Z,30.60
2022-08-24T21:05:25.755Z,30.50
2022-08-24T21:07:57.144Z,30.60
2022-08-24T21:10:27.145Z,30.40
2022-08-24T21:12:55.169Z,30.40
2022-08-24T21:15:23.448Z,30.30
2022-08-24T21:17:51.564Z,30.30
2022-08-24T21:20:20.264Z,30.30
2022-08-24T21:22:48.590Z,30.30
2022-08-24T21:25:17.613Z,30.30
2022-08-24T21:27:49.310Z,30.20
2022-08-24T21:30:18.232Z,30.20
2022-08-24T21:33:03.844Z,30.10
2022-08-24T21:35:31.967Z,30.10
2022-08-24T21:38:00.256Z,30.10
2022-08-24T21:40:28.839Z,30.10
2022-08-24T21:42:58.331Z,30.00
2022-08-24T21:45:26.374Z,30.00
2022-08-24T21:47:54.544Z,30.00
2022-08-24T21:50:25.477Z,30.00
2022-08-24T21:52:54.525Z,29.90
2022-08-24T21:55:23.107Z,29.90
2022-08-24T21:57:51.136Z,29.80
2022-08-24T22:00:20.530Z,29.80
2022-08-24T22:02:48.771Z,29.70
2022-08-24T22:05:17.905Z,29.70
2022-08-24T22:07:47.110Z,29.60
2022-08-24T22:10:15.335Z,29.60
2022-08-24T22:12:43.827Z,29.50
2022-08-24T22:15:13.580Z,29.50
2022-08-24T22:17:43.136Z,29.40
2022-08-24T22:20:15.113Z,29.40
2022-08-24T22:22:51.045Z,29.40
2022-08-24T22:25:19.234Z,29.30
2022-08-24T22:27:47.351Z,29.20
2022-08-24T22:30:16.683Z,29.10
2022-08-24T22:32:46.339Z,29.00
2022-08-24T22:35:14.260Z,29.10
2022-08-24T22:37:42.465Z,29.00
2022-08-24T22:40:12.701Z,28.90
2022-08-24T22:42:41.284Z,28.90
2022-08-24T22:45:10.508Z,28.90
2022-08-24T22:47:38.538Z,29.00
2022-08-24T22:50:09.132Z,29.00
2022-08-24T22:52:36.847Z,29.00
2022-08-24T22:55:05.659Z,29.00
2022-08-24T22:57:34.551Z,28.90
2022-08-24T23:00:02.495Z,28.90
2022-08-24T23:02:30.563Z,28.80
2022-08-24T23:04:58.526Z,28.80
2022-08-24T23:07:27.900Z,28.80
2022-08-24T23:09:56.018Z,28.70
2022-08-24T23:12:24.548Z,28.70
2022-08-24T23:14:53.065Z,28.60
2022-08-24T23:17:21.194Z,28.60
2022-08-24T23:20:00.484Z,28.60
2022-08-24T23:22:31.411Z,28.60
2022-08-24T23:25:00.196Z,28.50
2022-08-24T23:27:37.602Z,28.50
2022-08-24T23:30:08.315Z,28.40
2022-08-24T23:32:36.257Z,28.40
2022-08-24T23:35:04.310Z,28.40
2022-08-24T23:37:33.571Z,28.40
2022-08-24T23:40:01.754Z,28.40
2022-08-24T23:42:29.855Z,28.30
2022-08-24T23:44:57.708Z,28.30
2022-08-24T23:47:26.033Z,28.30
2022-08-24T23:49:55.458Z,28.30
2022-08-24T23:52:26.919Z,28.40
2022-08-24T23:55:17.872Z,28.20
2022-08-24T23:57:46.808Z,28.20
